Latest Weather Observations for Glen Innes Airport

IDN60801

Issued at 8:02 am EST Tuesday 27 June 2017 (issued every 30 minutes, with the page automatically refreshed every 10 minutes)

About weather observations | Map of weather stations | Latest weather observations for NSW | Other Formats
Station Details ID: 056243 Name: GLEN INNES AIRPORT AWS Lat: -29.68 Lon: 151.69 Height: 1044.3 m
Data from the previous 72 hours. | See also: Recent months at Glen Innes Airport
Date/Time
EST
Temp
°C
App
Temp
°C
Dew
Point
°C
Rel
Hum
%
Delta-T
°C
Wind Press
QNH
hPa
Press
MSL
hPa
Rain since
9am
mm
Dir  Spd
km/h
Gust
km/h
Spd
kts
Gust
kts
27/08:00am 7.1 3.8 6.5 96 0.3 SE 13 15 7 8 1026.1 1026.4 0.0
27/07:56am 6.9 4.0 6.3 96 0.3 SE 11 15 6 8 1026.1 1026.4 0.0
27/07:30am 2.9 -0.8 2.3 96 0.3 SE 11 13 6 7 1026.1 1026.4 0.0
27/07:00am 1.3 -2.3 0.3 93 0.4 SE 9 9 5 5 1025.9 1026.2 0.0
27/06:30am 2.5 -1.0 1.5 93 0.4 SE 9 11 5 6 1025.9 1026.2 0.0
27/06:24am 3.1 -0.6 2.1 93 0.4 SE 11 13 6 7 1025.9 1026.2 0.0
27/06:10am 3.8 0.2 2.8 93 0.4 SE 11 13 6 7 1025.9 1026.2 0.0
27/06:00am 4.5 0.6 3.6 94 0.4 SE 13 17 7 9 1025.7 1025.9 0.0
27/05:30am 5.8 2.2 5.1 95 0.3 SE 13 15 7 8 1025.4 1025.6 0.0
27/05:00am 6.1 1.9 5.5 96 0.3 SE 17 22 9 12 1025.0 1025.2 0.0
27/04:41am 6.0 2.1 5.4 96 0.3 ESE 15 19 8 10 1024.9 1025.1 0.0
27/04:30am 6.2 2.4 5.6 96 0.3 ESE 15 20 8 11 1025.1 1025.4 0.0
27/04:18am 6.0 2.1 5.4 96 0.3 ESE 15 19 8 10 1025.1 1025.4 0.0
27/04:12am 5.6 1.6 5.0 96 0.3 ESE 15 17 8 9 1025.0 1025.2 0.0
27/04:00am 4.6 0.8 4.0 96 0.3 SE 13 15 7 8 1025.0 1025.2 0.0
27/03:46am 4.3 0.8 3.7 96 0.3 SSE 11 15 6 8 1024.9 1025.1 0.0
27/03:30am 4.2 0.3 3.6 96 0.3 SSE 13 15 7 8 1024.9 1025.1 0.0
27/03:00am 6.0 2.5 5.4 96 0.3 SE 13 17 7 9 1024.9 1025.1 0.0
27/02:30am 5.7 1.7 5.1 96 0.3 SE 15 19 8 10 1025.1 1025.4 0.0
27/02:00am 4.3 0.8 3.7 96 0.3 SE 11 15 6 8 1025.1 1025.4 0.0
27/01:51am 2.6 -1.2 1.9 95 0.3 SE 11 15 6 8 1025.3 1025.5 0.0
27/01:44am 1.8 -2.1 0.9 94 0.4 SE 11 15 6 8 1025.3 1025.5 0.0
27/01:30am 3.3 -0.7 2.6 95 0.3 SE 13 15 7 8 1025.3 1025.5 0.0
27/01:14am 2.8 -1.4 1.9 94 0.4 SSE 13 15 7 8 1025.4 1025.6 0.0
27/01:00am 4.1 0.2 3.4 95 0.3 SSE 13 15 7 8 1025.4 1025.6 0.0
27/12:30am 5.8 2.2 5.2 96 0.3 SE 13 19 7 10 1025.4 1025.6 0.0
27/12:11am 5.6 2.8 5.0 96 0.3 SSE 9 13 5 7 1025.5 1025.7 0.0
27/12:00am 5.5 2.3 4.9 96 0.3 SE 11 15 6 8 1025.4 1025.6 0.0
 
Date/Time
EST
Temp
°C
App
Temp
°C
Dew
Point
°C
Rel
Hum
%
Delta-T
°C
Wind Press
QNH
hPa
Press
MSL
hPa
Rain since
9am
mm
Dir  Spd
km/h
Gust
km/h
Spd
kts
Gust
kts
26/11:30pm 5.1 1.8 4.5 96 0.3 SE 11 17 6 9 1025.5 1025.7 0.0
26/11:20pm 4.0 -0.3 3.4 96 0.3 SE 15 17 8 9 1025.7 1025.9 0.0
26/11:10pm 2.3 -1.9 1.7 96 0.2 SSE 13 17 7 9 1025.6 1025.8 0.0
26/11:00pm 0.8 -3.7 -0.2 93 0.4 SE 13 15 7 8 1025.6 1025.8 0.0
26/10:30pm 0.4 -3.8 -1.0 90 0.6 SE 11 13 6 7 1025.5 1025.7 0.0
26/10:00pm 1.1 -4.1 0.1 93 0.4 ESE 17 19 9 10 1025.6 1025.8 0.0
26/09:30pm -0.1 -4.0 -1.2 92 0.4 ESE 9 13 5 7 1025.3 1025.5 0.0
26/09:00pm 0.6 -2.9 -1.0 89 0.6 SE 7 9 4 5 1025.1 1025.4 0.0
26/08:30pm 0.6 -3.2 -0.8 90 0.5 SSE 9 13 5 7 1024.9 1025.1 0.0
26/08:00pm 1.4 -2.4 -0.5 87 0.7 ESE 9 9 5 5 1024.7 1024.9 0.0
26/07:30pm 0.7 -3.3 -2.5 79 1.2 ESE 9 13 5 7 1024.5 1024.7 0.0
26/07:00pm 3.6 1.4 -1.7 68 2.0 CALM 0 7 0 4 1024.3 1024.5 0.0
26/06:30pm 3.5 0.7 -0.7 74 1.7 SW 4 7 2 4 1023.9 1024.1 0.0
26/06:00pm 5.8 3.2 0.8 70 2.1 SW 4 7 2 4 1023.7 1023.9 0.0
26/05:30pm 8.9 5.3 0.6 56 3.6 SW 9 11 5 6 1023.3 1023.4 0.0
26/05:00pm 9.9 6.3 0.8 53 4.0 SW 9 9 5 5 1023.1 1023.3 0.0
26/04:30pm 13.0 8.9 2.0 47 5.1 WSW 13 19 7 10 1022.9 1023.1 0.0
26/04:00pm 14.0 9.0 1.6 43 5.7 W 17 22 9 12 1022.7 1022.9 0.0
26/03:30pm 14.5 9.3 2.4 44 5.7 W 19 24 10 13 1022.5 1022.6 0.0
26/03:00pm 14.8 9.6 2.7 44 5.7 W 19 26 10 14 1022.4 1022.5 0.0
26/02:30pm 14.8 9.4 2.4 43 5.8 WNW 20 30 11 16 1022.3 1022.4 0.0
26/02:00pm 15.2 10.1 3.0 44 5.8 W 19 26 10 14 1022.2 1022.3 0.0
26/01:30pm 15.2 10.3 2.1 41 6.2 WNW 17 32 9 17 1022.4 1022.5 0.0
26/01:00pm 14.8 10.0 2.7 44 5.7 WSW 17 24 9 13 1022.4 1022.5 0.0
26/12:30pm 14.8 9.6 2.4 43 5.8 WSW 19 30 10 16 1022.7 1022.9 0.0
26/12:00pm 14.4 9.1 1.7 42 5.9 W 19 30 10 16 1022.7 1022.9 0.0
26/11:30am 14.4 9.0 2.6 45 5.6 W 20 30 11 16 1022.9 1023.1 0.0
26/11:00am 14.1 9.1 3.8 50 5.0 W 19 28 10 15 1023.5 1023.7 0.0
26/10:30am 13.6 8.8 2.8 48 5.1 WNW 17 26 9 14 1023.6 1023.8 0.0
26/10:00am 11.7 9.3 5.1 64 3.2 WNW 7 11 4 6 1023.8 1024.0 0.0
26/09:30am 10.0 8.7 6.0 76 2.0 ESE 2 7 1 4 1023.8 1024.0 0.0
26/09:00am 7.1 4.6 4.8 85 1.1 ESE 7 9 4 5 1023.6 1023.8 0.0
26/08:30am 4.4 1.2 3.2 92 0.5 ESE 9 11 5 6 1023.4 1023.5 0.0
26/08:00am 1.3 -2.3 0.4 94 0.4 ESE 9 11 5 6 1023.1 1023.3 0.0
26/07:30am -0.5 -5.1 -1.2 95 0.2 ESE 13 13 7 7 1022.8 1023.0 0.0
26/07:00am -1.4 -6.1 -2.0 96 0.2 ESE 13 13 7 7 1022.3 1022.4 0.0
26/06:30am -1.9 -6.7 -2.5 96 0.1 ESE 13 15 7 8 1022.2 1022.3 0.0
26/06:00am -2.0 -6.4 -2.6 96 0.1 E 11 13 6 7 1021.9 1022.1 0.0
26/05:30am -1.5 -5.5 -2.1 96 0.1 E 9 13 5 7 1021.6 1021.7 0.0
26/05:00am -1.7 -6.1 -2.1 97 0.1 ESE 11 13 6 7 1021.5 1021.6 0.0
26/04:48am -2.4 -6.5 -2.9 96 0.1 ESE 9 11 5 6 1021.4 1021.5 0.0
26/04:30am -2.2 -5.9 -2.7 96 0.1 ESE 7 9 4 5 1021.4 1021.5 0.0
26/04:25am -2.3 -6.0 -2.8 96 0.1 ESE 7 9 4 5 1021.4 1021.5 0.0
26/04:00am -2.5 -6.2 -3.3 94 0.2 ESE 7 9 4 5 1021.4 1021.5 0.0
26/03:30am -1.5 -5.5 -2.1 96 0.1 ESE 9 13 5 7 1021.3 1021.4 0.0
26/03:27am -1.7 -5.7 -2.3 96 0.1 ESE 9 11 5 6 1021.4 1021.5 0.0
26/03:13am -1.7 -5.7 -2.3 96 0.1 ESE 9 11 5 6 1021.4 1021.5 0.0
26/03:00am -1.3 -5.6 -1.9 96 0.2 E 11 13 6 7 1021.3 1021.4 0.0
26/02:36am -1.5 -5.5 -2.1 96 0.1 ESE 9 11 5 6 1021.4 1021.5 0.0
26/02:30am -1.7 -5.7 -2.3 96 0.1 ESE 9 11 5 6 1021.4 1021.5 0.0
26/02:19am -1.7 -5.3 -2.3 96 0.1 ESE 7 9 4 5 1021.4 1021.5 0.0
26/02:00am -1.6 -5.2 -2.2 96 0.1 ESE 7 11 4 6 1021.4 1021.5 0.0
26/01:56am -1.4 -5.0 -2.0 96 0.2 ESE 7 9 4 5 1021.4 1021.5 0.0
26/01:30am -1.1 -4.5 -1.7 96 0.2 SE 6 7 3 4 1021.5 1021.6 0.0
26/01:19am -1.5 -5.1 -2.2 95 0.2 SE 7 9 4 5 1021.5 1021.6 0.0
26/01:00am -1.4 -5.0 -2.1 95 0.2 SE 7 9 4 5 1021.5 1021.6 0.0
26/12:30am -1.3 -4.7 -2.0 95 0.2 ESE 6 9 3 5 1021.6 1021.7 0.0
26/12:00am -1.1 -4.5 -1.9 94 0.2 ESE 6 7 3 4 1021.6 1021.7 0.0
 
Date/Time
EST
Temp
°C
App
Temp
°C
Dew
Point
°C
Rel
Hum
%
Delta-T
°C
Wind Press
QNH
hPa
Press
MSL
hPa
Rain since
9am
mm
Dir  Spd
km/h
Gust
km/h
Spd
kts
Gust
kts
25/11:30pm -0.3 -4.1 -1.0 95 0.2 ESE 9 11 5 6 1021.8 1022.0 0.0
25/11:00pm -0.5 -4.0 -1.5 93 0.3 SE 7 7 4 4 1022.0 1022.2 0.0
25/10:30pm 0.5 -2.7 -0.4 94 0.3 SE 6 7 3 4 1022.0 1022.2 0.0
25/10:00pm 1.3 -2.3 0.6 95 0.3 E 9 11 5 6 1021.6 1021.7 0.0
25/09:30pm 1.3 -1.8 0.1 92 0.5 SSE 6 7 3 4 1021.6 1021.7 0.0
25/09:00pm 2.0 -1.9 1.1 94 0.4 SSE 11 13 6 7 1021.5 1021.6 0.0
25/08:30pm 2.9 0.1 1.9 93 0.4 E 6 7 3 4 1021.6 1021.7 0.0
25/08:00pm 2.7 -0.2 1.4 91 0.5 E 6 6 3 3 1021.5 1021.6 0.0
25/07:30pm 3.4 0.6 2.1 91 0.6 E 6 7 3 4 1021.6 1021.7 0.0
25/07:00pm 3.6 0.8 2.0 89 0.7 SE 6 6 3 3 1021.2 1021.3 0.0
25/06:30pm 4.6 2.9 2.1 84 1.1 CALM 0 0 0 0 1020.8 1020.9 0.0
25/06:00pm 6.0 3.4 3.0 81 1.3 SW 6 7 3 4 1020.6 1020.7 0.0
25/05:30pm 8.0 5.2 3.3 72 2.1 W 7 7 4 4 1020.4 1020.5 0.0
25/05:00pm 9.3 6.2 3.5 67 2.7 W 9 11 5 6 1020.2 1020.3 0.0
25/04:30pm 11.3 7.1 3.8 60 3.5 W 15 20 8 11 1019.9 1020.0 0.0
25/04:00pm 12.5 7.5 3.5 54 4.3 W 19 26 10 14 1019.7 1019.8 0.0
25/03:30pm 14.7 9.2 3.8 48 5.3 WNW 22 28 12 15 1019.5 1019.6 0.0
25/03:00pm 14.0 8.8 3.8 50 4.9 WNW 20 26 11 14 1019.5 1019.6 0.0
25/02:30pm 14.9 10.0 4.3 49 5.2 WNW 19 26 10 14 1019.5 1019.6 0.0
25/02:00pm 15.1 9.1 3.6 46 5.6 WNW 24 30 13 16 1019.6 1019.7 0.0
25/01:30pm 15.1 9.9 3.6 46 5.6 WNW 20 30 11 16 1019.8 1019.9 0.0
25/01:00pm 14.6 9.3 3.1 46 5.5 W 20 30 11 16 1020.0 1020.1 0.0
25/12:30pm 14.8 10.8 5.1 52 4.8 WNW 15 22 8 12 1020.4 1020.5 0.0
25/12:00pm 14.5 9.6 3.9 49 5.1 W 19 26 10 14 1020.7 1020.8 0.0
25/11:30am 13.8 9.4 4.9 55 4.4 SW 17 24 9 13 1021.2 1021.3 0.0
25/11:00am 14.0 10.5 5.6 57 4.2 W 13 20 7 11 1021.6 1021.7 0.0
25/10:30am 12.9 8.4 4.3 56 4.2 W 17 22 9 12 1021.8 1022.0 0.0
25/10:00am 12.0 9.2 5.0 62 3.4 WNW 9 17 5 9 1022.0 1022.2 0.0
25/09:30am 11.1 9.8 5.8 70 2.6 ENE 2 6 1 3 1022.3 1022.4 0.0
25/09:00am 8.3 6.3 6.1 86 1.1 ESE 6 9 3 5 1021.9 1022.1 0.0
25/08:30am 6.6 4.2 5.1 90 0.7 ESE 7 7 4 4 1021.9 1022.1 0.0
25/08:00am 4.0 1.4 3.1 94 0.4 SE 6 7 3 4 1021.6 1021.7 0.0
25/07:30am 1.0 -2.1 0.3 95 0.3 SE 6 7 3 4 1021.2 1021.3 0.0
25/07:00am 0.0 -4.2 -0.7 95 0.3 SSE 11 13 6 7 1021.0 1021.2 0.0
25/06:30am 0.3 -2.9 -0.3 96 0.2 SE 6 7 3 4 1020.8 1020.9 0.0
25/06:00am -0.2 -3.6 -0.8 96 0.2 SE 7 9 4 5 1020.5 1020.6 0.0
25/05:30am -0.8 -4.1 -1.6 94 0.3 SE 6 7 3 4 1020.2 1020.3 0.0
25/05:00am -0.6 -4.5 -1.4 94 0.3 SE 9 11 5 6 1020.0 1020.1 0.0
25/04:30am -0.2 -3.6 -0.9 95 0.3 SSE 7 9 4 5 1019.9 1020.0 0.0
25/04:00am 0.4 -3.3 -0.2 96 0.2 SSE 9 11 5 6 1019.6 1019.7 0.0
25/03:30am -0.7 -4.6 -1.3 96 0.2 E 9 11 5 6 1019.6 1019.7 0.0
25/03:00am -0.9 -5.2 -1.5 96 0.2 ESE 11 11 6 6 1019.9 1020.0 0.0
25/02:30am -1.4 -4.8 -2.1 95 0.2 ESE 6 9 3 5 1020.3 1020.4 0.0
25/02:00am -1.0 -4.5 -1.7 95 0.2 ESE 7 9 4 5 1020.3 1020.4 0.0
25/01:30am -1.5 -5.0 -2.5 93 0.3 ESE 6 7 3 4 1020.3 1020.4 0.0
25/01:00am -0.6 -3.9 -1.4 94 0.3 E 6 7 3 4 1020.2 1020.3 0.0
25/12:30am 0.2 -3.6 -0.5 95 0.3 E 9 11 5 6 1020.3 1020.4 0.0
25/12:00am -0.5 -4.4 -1.3 94 0.3 SE 9 11 5 6 1020.5 1020.6 0.0
 
Date/Time
EST
Temp
°C
App
Temp
°C
Dew
Point
°C
Rel
Hum
%
Delta-T
°C
Wind Press
QNH
hPa
Press
MSL
hPa
Rain since
9am
mm
Dir  Spd
km/h
Gust
km/h
Spd
kts
Gust
kts
24/11:30pm -0.8 -4.7 -1.8 93 0.3 SE 9 11 5 6 1020.6 1020.7 0.0
24/11:00pm 0.1 -4.1 -1.0 92 0.4 E 11 13 6 7 1020.7 1020.8 0.0
24/10:30pm 1.0 -2.7 0.0 93 0.4 E 9 9 5 5 1020.9 1021.1 0.0
24/10:00pm 0.9 -2.9 -0.5 90 0.5 SSE 9 11 5 6 1020.9 1021.1 0.0
24/09:30pm 1.0 -3.1 -0.1 92 0.4 SSE 11 11 6 6 1020.8 1020.9 0.0
24/09:00pm 1.9 -1.1 0.7 92 0.5 SE 6 7 3 4 1020.7 1020.8 0.0
24/08:30pm 2.5 -0.5 0.7 88 0.7 SE 6 7 3 4 1020.6 1020.7 0.0
24/08:00pm 2.8 -0.2 0.7 86 0.8 WSW 6 7 3 4 1020.4 1020.5 0.0
24/07:30pm 4.0 0.8 1.0 81 1.2 WSW 7 7 4 4 1020.4 1020.5 0.0
24/07:00pm 4.7 1.6 1.4 79 1.4 WSW 7 7 4 4 1020.3 1020.4 0.0
24/06:30pm 6.8 4.0 2.3 73 2.0 S 6 9 3 5 1020.0 1020.1 0.0
24/06:00pm 7.4 4.6 1.9 68 2.4 SW 6 7 3 4 1019.7 1019.8 0.0
24/05:30pm 9.4 6.5 2.5 62 3.1 SW 7 11 4 6 1019.5 1019.6 0.0
24/05:00pm 10.7 6.6 2.5 57 3.7 WSW 13 17 7 9 1019.2 1019.2 0.0
24/04:30pm 13.0 9.5 3.7 53 4.4 WSW 11 17 6 9 1018.9 1019.0 0.0
24/04:00pm 13.7 9.1 3.8 51 4.8 WSW 17 24 9 13 1018.7 1018.8 0.0
24/03:30pm 14.3 9.1 3.7 49 5.1 WSW 20 28 11 15 1018.6 1018.7 0.0
24/03:00pm 14.6 9.0 3.7 48 5.3 W 22 33 12 18 1018.4 1018.4 0.0
24/02:30pm 14.7 8.6 2.9 45 5.6 W 24 35 13 19 1018.4 1018.4 0.0
24/02:00pm 14.6 7.9 3.4 47 5.4 W 28 35 15 19 1018.2 1018.2 0.0
24/01:30pm 14.7 7.9 3.2 46 5.5 W 28 39 15 21 1018.2 1018.2 0.0
24/01:00pm 15.0 9.5 3.8 47 5.4 WSW 22 33 12 18 1018.2 1018.2 0.0
24/12:30pm 14.9 8.6 3.7 47 5.4 WSW 26 33 14 18 1018.6 1018.7 0.0
24/12:00pm 14.3 7.4 2.5 45 5.5 WSW 28 33 15 18 1019.2 1019.2 0.0
24/11:30am 14.2 8.7 3.9 50 5.0 SW 22 30 12 16 1019.4 1019.5 0.0
24/11:00am 14.0 8.1 4.0 51 4.8 WSW 24 33 13 18 1019.8 1019.9 0.0
24/10:30am 13.2 6.7 2.4 48 5.0 WSW 26 39 14 21 1020.2 1020.3 0.0
24/10:00am 12.6 7.2 2.5 50 4.7 WSW 20 28 11 15 1020.3 1020.4 0.0
24/09:30am 12.1 7.8 3.1 54 4.2 WSW 15 26 8 14 1020.0 1020.1 0.0
24/09:00am 10.8 7.4 4.0 63 3.2 W 11 13 6 7 1020.0 1020.1 0.0
24/08:30am 8.8 5.0 4.0 72 2.2 W 13 17 7 9 1019.7 1019.8 0.0

Other Formats:

Comma delimited format used in spreadsheet applications
http://www.bom.gov.au/fwo/IDN60801/IDN60801.94588.axf

JavaScript Object Notation format (JSON) in row-major order
http://www.bom.gov.au/fwo/IDN60801/IDN60801.94588.json